KBTP/BTP METAR and TAF weather

Enter ICAO airport designator
Station Type Date Time Source
KBTP METAR 2018/10/21 03:13 UTC NOAA

KBTP 210313Z AUTO 28011G27KT 10SM -RA BKN014 BKN029 OVC036 04/03 A2980 RMK AO2 PK WND 27027/0306 RAB04 P0001


Station Type Date Time Source
KBTP Decoded METAR 2018/10/21 03:13 UTC NOAA

Butler, Butler County Airport/K W Scholter Field, PA, United States (KBTP) 40-47N 079-57W
Oct 20, 2018 - 11:13 PM EDT / 2018.10.21 0313 UTC
Wind: from the W (280 degrees) at 13 MPH (11 KT) gusting to 31 MPH (27 KT):0
Visibility: 10 mile(s):0
Sky conditions: overcast
Weather: light rain
Precipitation last hour: 0.01 inches
Temperature: 39 F (4 C)
Dew Point: 37 F (3 C)
Relative Humidity: 93%
Pressure (altimeter): 29.8 in. Hg (1009 hPa)
ob: KBTP 210313Z AUTO 28011G27KT 10SM -RA BKN014 BKN029 OVC036 04/03 A2980 RMK AO2 PK WND 27027/0306 RAB04 P0001
cycle: 3

Station Type Date Time Source
KBTP TAF UTC NOAA

Error!


Example: see airport list